Time;durP1;ratioP1;P1;durP2;ratioP2;P2;SDS_P1;SDS_P2;PMS_P1;PMS_P2;Temp;Humidity;BMP_temperature;BMP_pressure;BME280_temperature;BME280_humidity;BME280_pressure;Samples;Min_cycle;Max_cycle;Signal;HPM_P1;HPM_P2
2022/11/28 00:01:29;;;;;;;30.60;22.10;;;;;;;;;;5057340;28;20202;-88
2022/11/28 00:03:58;;;;;;;19.83;15.20;;;;;;;;;;5057369;28;20308;-88
2022/11/28 00:06:28;;;;;;;23.03;17.03;;;;;;;;;;5057262;28;20201;-88
2022/11/28 00:08:58;;;;;;;25.93;18.77;;;;;;;;;;5057557;28;20213;-88
2022/11/28 00:11:27;;;;;;;17.77;14.10;;;;;;;;;;5057050;28;20194;-88
2022/11/28 00:13:55;;;;;;;27.57;20.43;;;;;;;;;;5056996;28;20198;-87
2022/11/28 00:16:24;;;;;;;26.20;16.43;;;;;;;;;;5057367;28;20247;-88
2022/11/28 00:18:54;;;;;;;30.60;22.37;;;;;;;;;;5074507;28;20240;-88
2022/11/28 00:21:23;;;;;;;23.00;16.33;;;;;;;;;;5057178;28;20198;-88
2022/11/28 00:23:52;;;;;;;25.83;19.60;;;;;;;;;;5057284;28;20190;-88
2022/11/28 00:26:22;;;;;;;23.00;17.83;;;;;;;;;;5057351;28;20213;-88
2022/11/28 00:28:51;;;;;;;27.17;17.77;;;;;;;;;;5056774;28;20202;-88
2022/11/28 00:31:20;;;;;;;24.67;18.50;;;;;;;;;;5075145;28;20229;-88
2022/11/28 00:34:00;;;;;;;24.00;18.93;;;;;;;;;;5057433;28;20285;-88
2022/11/28 00:36:29;;;;;;;23.63;15.63;;;;;;;;;;5074869;28;20197;-88
2022/11/28 00:38:59;;;;;;;22.17;15.90;;;;;;;;;;5056842;28;20198;-86
2022/11/28 00:41:29;;;;;;;24.53;20.50;;;;;;;;;;5049627;28;20205;-87
2022/11/28 00:43:58;;;;;;;21.83;13.97;;;;;;;;;;5050003;28;20203;-87
2022/11/28 00:46:26;;;;;;;14.17;10.60;;;;;;;;;;5057265;28;20214;-87
2022/11/28 00:48:54;;;;;;;2.37;2.27;;;;;;;;;;5056790;28;20201;-87
2022/11/28 00:51:24;;;;;;;23.60;17.90;;;;;;;;;;5056845;28;20189;-88
2022/11/28 00:53:53;;;;;;;23.57;17.10;;;;;;;;;;5056457;28;20252;-87
2022/11/28 00:56:24;;;;;;;25.93;19.70;;;;;;;;;;5056474;28;20213;-87
2022/11/28 00:58:53;;;;;;;16.50;11.07;;;;;;;;;;5056203;28;20221;-87
2022/11/28 01:01:22;;;;;;;27.50;20.50;;;;;;;;;;5056463;28;20204;-87
2022/11/28 01:03:52;;;;;;;25.40;18.00;;;;;;;;;;5056492;28;20221;-87
2022/11/28 01:06:21;;;;;;;23.63;19.00;;;;;;;;;;5055430;28;20216;-88
2022/11/28 01:08:50;;;;;;;19.20;15.17;;;;;;;;;;5074224;28;20209;-87
2022/11/28 01:11:18;;;;;;;22.17;18.47;;;;;;;;;;5055928;28;20225;-87
2022/11/28 01:13:48;;;;;;;22.67;18.83;;;;;;;;;;5054548;28;20201;-87
2022/11/28 01:16:17;;;;;;;19.07;15.20;;;;;;;;;;5062313;28;20233;-87
2022/11/28 01:18:45;;;;;;;10.93;6.83;;;;;;;;;;5055922;28;20336;-87
2022/11/28 01:21:14;;;;;;;22.30;13.73;;;;;;;;;;5074006;28;20209;-87
2022/11/28 01:23:43;;;;;;;22.30;17.97;;;;;;;;;;5048303;28;20198;-87
2022/11/28 01:26:13;;;;;;;20.90;16.73;;;;;;;;;;5050707;28;20297;-87
2022/11/28 01:28:41;;;;;;;23.37;18.10;;;;;;;;;;5056062;28;20296;-87
2022/11/28 01:31:12;;;;;;;22.67;16.10;;;;;;;;;;5073641;28;20206;-87
2022/11/28 01:33:41;;;;;;;17.03;12.80;;;;;;;;;;5055186;28;20205;-87
2022/11/28 01:36:11;;;;;;;14.07;11.77;;;;;;;;;;5055329;28;20198;-87
2022/11/28 01:38:39;;;;;;;23.93;17.83;;;;;;;;;;5055903;28;20225;-87
2022/11/28 01:41:08;;;;;;;21.90;14.73;;;;;;;;;;5055035;28;20193;-87
2022/11/28 01:43:36;;;;;;;16.17;12.27;;;;;;;;;;5055227;28;20198;-88
2022/11/28 01:46:05;;;;;;;25.87;18.70;;;;;;;;;;5055380;28;20267;-87
2022/11/28 01:48:38;;;;;;;14.87;10.87;;;;;;;;;;5055761;28;20212;-88
2022/11/28 01:51:07;;;;;;;23.57;16.90;;;;;;;;;;5040150;28;20194;-87
2022/11/28 01:53:38;;;;;;;20.73;14.13;;;;;;;;;;5050565;28;20288;-88
2022/11/28 01:56:08;;;;;;;22.93;16.50;;;;;;;;;;5073099;28;20250;-87
2022/11/28 01:58:37;;;;;;;23.63;12.23;;;;;;;;;;5055283;28;20201;-87
2022/11/28 02:01:06;;;;;;;14.87;9.87;;;;;;;;;;5055145;28;20259;-88
2022/11/28 02:03:40;;;;;;;20.90;14.27;;;;;;;;;;5053148;28;20233;-88
2022/11/28 02:06:08;;;;;;;25.83;17.97;;;;;;;;;;5055218;28;20228;-88
2022/11/28 02:08:37;;;;;;;21.50;13.90;;;;;;;;;;5055623;28;20198;-88
2022/11/28 02:11:19;;;;;;;22.20;13.67;;;;;;;;;;5055121;28;20220;-88
2022/11/28 02:13:53;;;;;;;18.53;12.93;;;;;;;;;;5072503;28;20233;-88
2022/11/28 02:16:31;;;;;;;29.13;19.30;;;;;;;;;;5053825;28;20192;-88
2022/11/28 02:19:10;;;;;;;21.70;12.57;;;;;;;;;;5053911;28;20227;-88
2022/11/28 02:21:42;;;;;;;25.07;17.30;;;;;;;;;;5054638;28;20197;-88
2022/11/28 02:24:25;;;;;;;25.17;17.63;;;;;;;;;;5072430;28;20251;-89
2022/11/28 02:26:59;;;;;;;29.07;18.87;;;;;;;;;;5055027;28;20223;-86
2022/11/28 02:29:42;;;;;;;19.57;13.43;;;;;;;;;;5055141;28;20243;-86
2022/11/28 02:32:15;;;;;;;14.33;8.47;;;;;;;;;;5072131;28;20210;-86
2022/11/28 02:34:47;;;;;;;36.73;24.10;;;;;;;;;;5055018;28;20194;-86
2022/11/28 02:37:21;;;;;;;38.90;22.37;;;;;;;;;;5053246;28;20251;-88
2022/11/28 02:39:54;;;;;;;35.77;22.57;;;;;;;;;;5054886;28;20201;-88
2022/11/28 02:42:24;;;;;;;38.23;22.37;;;;;;;;;;5054506;28;20198;-88
2022/11/28 02:44:55;;;;;;;21.00;13.10;;;;;;;;;;5071679;28;20274;-88
2022/11/28 02:47:27;;;;;;;39.33;22.30;;;;;;;;;;5053809;28;20301;-88
2022/11/28 02:49:58;;;;;;;16.93;11.77;;;;;;;;;;5054492;28;20205;-88
2022/11/28 02:52:28;;;;;;;19.57;13.03;;;;;;;;;;5054497;28;20224;-88
2022/11/28 02:54:57;;;;;;;28.77;14.50;;;;;;;;;;5054571;28;20224;-88
2022/11/28 02:57:29;;;;;;;17.63;10.77;;;;;;;;;;5054702;28;20209;-88
2022/11/28 02:59:58;;;;;;;40.43;25.50;;;;;;;;;;5054181;28;20190;-88
2022/11/28 03:02:30;;;;;;;33.13;20.07;;;;;;;;;;5054256;28;20205;-88
2022/11/28 03:05:01;;;;;;;26.93;17.70;;;;;;;;;;5054683;28;20228;-88
2022/11/28 03:07:35;;;;;;;36.00;20.13;;;;;;;;;;5054188;28;20214;-88
2022/11/28 03:10:13;;;;;;;34.90;20.97;;;;;;;;;;5054061;28;20192;-88
2022/11/28 03:12:49;;;;;;;33.30;20.13;;;;;;;;;;5041622;28;20198;-88
2022/11/28 03:15:18;;;;;;;37.67;22.57;;;;;;;;;;5042460;28;20284;-88
2022/11/28 03:17:52;;;;;;;38.13;21.63;;;;;;;;;;5071440;28;20263;-88
2022/11/28 03:20:23;;;;;;;32.97;21.00;;;;;;;;;;5054532;28;20196;-88
2022/11/28 03:23:01;;;;;;;32.47;17.80;;;;;;;;;;5054158;28;20194;-88
2022/11/28 03:25:33;;;;;;;48.53;26.70;;;;;;;;;;5053902;28;21100;-88
2022/11/28 03:28:06;;;;;;;39.53;20.40;;;;;;;;;;5054002;28;20245;-88
2022/11/28 03:30:38;;;;;;;36.70;20.83;;;;;;;;;;5054325;28;20206;-88
2022/11/28 03:33:09;;;;;;;33.27;17.10;;;;;;;;;;5053945;28;20230;-88
2022/11/28 03:35:39;;;;;;;41.13;19.87;;;;;;;;;;5071951;28;20210;-88
2022/11/28 03:38:11;;;;;;;50.27;22.53;;;;;;;;;;5054149;28;20196;-88
2022/11/28 03:40:42;;;;;;;61.37;31.20;;;;;;;;;;5071796;28;20206;-88
2022/11/28 03:43:11;;;;;;;56.63;31.30;;;;;;;;;;5053695;28;20233;-88
2022/11/28 03:45:41;;;;;;;53.27;24.77;;;;;;;;;;5054082;28;20199;-88
2022/11/28 03:48:14;;;;;;;45.50;24.00;;;;;;;;;;5053800;28;20267;-87
2022/11/28 03:50:44;;;;;;;48.63;26.70;;;;;;;;;;5053808;28;20235;-86
2022/11/28 03:53:18;;;;;;;49.60;22.90;;;;;;;;;;5071815;28;20193;-88
2022/11/28 03:55:49;;;;;;;62.07;30.30;;;;;;;;;;5055018;28;20211;-88
2022/11/28 03:58:22;;;;;;;43.37;24.10;;;;;;;;;;5057418;28;20292;-88
2022/11/28 04:00:53;;;;;;;49.37;23.37;;;;;;;;;;5057700;28;20205;-87
2022/11/28 04:03:27;;;;;;;57.53;30.77;;;;;;;;;;5057458;28;20218;-88
2022/11/28 04:06:01;;;;;;;52.93;25.67;;;;;;;;;;5057602;28;20503;-88
2022/11/28 04:08:32;;;;;;;40.50;18.70;;;;;;;;;;5046095;28;20199;-88
2022/11/28 04:11:04;;;;;;;26.87;14.53;;;;;;;;;;5055104;28;20502;-88
2022/11/28 04:13:33;;;;;;;46.83;21.93;;;;;;;;;;5056965;28;20202;-88
2022/11/28 04:16:05;;;;;;;50.00;30.20;;;;;;;;;;5075329;28;20203;-88
2022/11/28 04:18:39;;;;;;;37.13;20.57;;;;;;;;;;5057295;28;20238;-88
2022/11/28 04:21:11;;;;;;;48.83;27.97;;;;;;;;;;5057192;28;20219;-87
2022/11/28 04:23:41;;;;;;;50.10;31.07;;;;;;;;;;5057262;28;20214;-88
2022/11/28 04:26:12;;;;;;;41.87;21.67;;;;;;;;;;5056811;28;20211;-87
2022/11/28 04:28:41;;;;;;;50.43;27.50;;;;;;;;;;5057315;28;20299;-88
2022/11/28 04:31:10;;;;;;;37.40;20.77;;;;;;;;;;5057148;28;20204;-87
2022/11/28 04:33:43;;;;;;;41.23;22.30;;;;;;;;;;5057429;28;20201;-88
2022/11/28 04:36:12;;;;;;;41.03;22.37;;;;;;;;;;5075077;28;20198;-88
2022/11/28 04:38:41;;;;;;;42.00;23.70;;;;;;;;;;5056976;28;20193;-88
2022/11/28 04:41:13;;;;;;;41.87;23.90;;;;;;;;;;5074782;28;20204;-88
2022/11/28 04:43:44;;;;;;;48.67;25.77;;;;;;;;;;5056505;28;20196;-88
2022/11/28 04:46:13;;;;;;;40.00;20.93;;;;;;;;;;5044131;28;20224;-88
2022/11/28 04:48:43;;;;;;;30.27;10.80;;;;;;;;;;5056936;28;20305;-88
2022/11/28 04:51:15;;;;;;;32.97;16.23;;;;;;;;;;5056899;28;20239;-88
2022/11/28 04:53:47;;;;;;;30.97;13.93;;;;;;;;;;5057029;28;20267;-88
2022/11/28 04:56:18;;;;;;;34.03;18.13;;;;;;;;;;5074371;28;20218;-88
2022/11/28 04:58:48;;;;;;;36.97;19.33;;;;;;;;;;5056826;28;20194;-87
2022/11/28 05:01:18;;;;;;;45.23;23.33;;;;;;;;;;5056523;28;20194;-88
2022/11/28 05:03:48;;;;;;;28.10;15.40;;;;;;;;;;5044218;28;20248;-87
2022/11/28 05:06:27;;;;;;;33.57;18.27;;;;;;;;;;5043264;28;20210;-88
2022/11/28 05:08:55;;;;;;;39.77;23.67;;;;;;;;;;5042268;28;20277;-87
2022/11/28 05:11:24;;;;;;;27.37;16.00;;;;;;;;;;5055983;28;20212;-88
2022/11/28 05:13:52;;;;;;;5.47;4.53;;;;;;;;;;5073761;28;20204;-88
2022/11/28 05:16:21;;;;;;;16.90;10.70;;;;;;;;;;5073782;28;20214;-88
2022/11/28 05:18:51;;;;;;;33.13;17.27;;;;;;;;;;5052741;28;20238;-88
2022/11/28 05:21:19;;;;;;;31.27;18.73;;;;;;;;;;5046908;28;20277;-88
2022/11/28 05:23:48;;;;;;;36.23;20.67;;;;;;;;;;5052953;28;20196;-87
2022/11/28 05:26:17;;;;;;;35.33;19.93;;;;;;;;;;5053006;28;20191;-88
2022/11/28 05:28:46;;;;;;;39.37;24.27;;;;;;;;;;5052160;28;20227;-87
2022/11/28 05:31:15;;;;;;;33.23;17.40;;;;;;;;;;5043631;28;20207;-86
2022/11/28 05:33:43;;;;;;;37.20;20.67;;;;;;;;;;5050251;28;20208;-88
2022/11/28 05:36:13;;;;;;;35.77;21.00;;;;;;;;;;5052551;28;20230;-88
2022/11/28 05:38:42;;;;;;;41.63;24.27;;;;;;;;;;5052323;28;20249;-88
2022/11/28 05:41:11;;;;;;;37.50;20.77;;;;;;;;;;5052367;28;20202;-88
2022/11/28 05:43:39;;;;;;;31.97;18.23;;;;;;;;;;5052394;28;20260;-88
2022/11/28 05:46:07;;;;;;;26.77;15.60;;;;;;;;;;5052792;28;20291;-88
2022/11/28 05:48:36;;;;;;;36.00;17.57;;;;;;;;;;5051689;28;20235;-88
2022/11/28 05:51:04;;;;;;;42.87;20.87;;;;;;;;;;5052188;28;20297;-88
2022/11/28 05:53:34;;;;;;;25.97;15.17;;;;;;;;;;5052078;28;20203;-88
2022/11/28 05:56:07;;;;;;;33.10;18.67;;;;;;;;;;5053242;28;20211;-88
2022/11/28 05:58:35;;;;;;;32.37;17.83;;;;;;;;;;5052432;28;20196;-88
2022/11/28 06:01:09;;;;;;;34.07;18.13;;;;;;;;;;5051424;28;20320;-88
2022/11/28 06:03:38;;;;;;;31.03;16.60;;;;;;;;;;5052123;28;20227;-88
2022/11/28 06:06:10;;;;;;;33.60;17.83;;;;;;;;;;5052099;28;20200;-88
2022/11/28 06:08:40;;;;;;;21.73;12.13;;;;;;;;;;5052012;28;20218;-88
2022/11/28 06:11:08;;;;;;;12.00;8.47;;;;;;;;;;5051473;28;20208;-87
2022/11/28 06:13:37;;;;;;;31.07;13.13;;;;;;;;;;5051924;28;20204;-88
2022/11/28 06:16:07;;;;;;;21.00;13.00;;;;;;;;;;5051352;28;20232;-87
2022/11/28 06:18:36;;;;;;;2.30;2.10;;;;;;;;;;5051794;28;20233;-88
2022/11/28 06:21:04;;;;;;;12.30;7.70;;;;;;;;;;5051665;28;20239;-88
2022/11/28 06:23:33;;;;;;;29.17;15.60;;;;;;;;;;5051608;28;20204;-87
2022/11/28 06:26:06;;;;;;;29.60;15.93;;;;;;;;;;5031822;28;20228;-88
2022/11/28 06:28:35;;;;;;;26.13;11.37;;;;;;;;;;5047989;28;20247;-87
2022/11/28 06:31:04;;;;;;;28.87;15.20;;;;;;;;;;5043104;28;20209;-88
2022/11/28 06:33:32;;;;;;;3.23;3.03;;;;;;;;;;5047815;28;20200;-88
2022/11/28 06:36:01;;;;;;;18.57;9.47;;;;;;;;;;5051681;28;20199;-88
2022/11/28 06:38:30;;;;;;;9.13;6.07;;;;;;;;;;5051469;28;20197;-87
2022/11/28 06:40:58;;;;;;;23.77;12.27;;;;;;;;;;5051202;28;20202;-87
2022/11/28 06:43:28;;;;;;;37.63;18.37;;;;;;;;;;5051094;28;20185;-87
2022/11/28 06:45:57;;;;;;;35.10;16.77;;;;;;;;;;5051218;28;20196;-87
2022/11/28 06:48:26;;;;;;;35.93;18.37;;;;;;;;;;5051236;28;20216;-88
2022/11/28 06:50:54;;;;;;;39.30;18.67;;;;;;;;;;5051461;28;20200;-88
2022/11/28 06:53:23;;;;;;;36.93;17.43;;;;;;;;;;5051134;28;20207;-87
2022/11/28 06:55:58;;;;;;;34.63;17.07;;;;;;;;;;5038307;28;20211;-88
2022/11/28 06:58:28;;;;;;;43.57;22.60;;;;;;;;;;5051571;28;20263;-88
2022/11/28 07:00:56;;;;;;;27.10;14.50;;;;;;;;;;5052742;28;20212;-88
2022/11/28 07:03:25;;;;;;;3.37;3.23;;;;;;;;;;5051105;28;20216;-87
2022/11/28 07:05:53;;;;;;;1.37;1.30;;;;;;;;;;5051270;28;20290;-87
2022/11/28 07:08:22;;;;;;;4.60;4.20;;;;;;;;;;5051471;28;20287;-87
2022/11/28 07:10:50;;;;;;;31.27;16.00;;;;;;;;;;5050764;28;20246;-89
2022/11/28 07:13:19;;;;;;;34.77;17.43;;;;;;;;;;5050653;28;20206;-88
2022/11/28 07:15:50;;;;;;;21.40;11.00;;;;;;;;;;5052454;28;20283;-89
2022/11/28 07:18:19;;;;;;;29.47;15.40;;;;;;;;;;5051017;28;20240;-89
2022/11/28 07:20:47;;;;;;;25.50;13.70;;;;;;;;;;5052588;28;20200;-89
2022/11/28 07:23:16;;;;;;;47.00;25.23;;;;;;;;;;5050837;28;20291;-89
2022/11/28 07:25:44;;;;;;;42.23;16.70;;;;;;;;;;5037931;28;20199;-88
2022/11/28 07:28:14;;;;;;;45.30;22.40;;;;;;;;;;5050947;28;20221;-90
2022/11/28 07:30:50;;;;;;;39.60;18.70;;;;;;;;;;5052216;28;20213;-89
2022/11/28 07:33:19;;;;;;;26.70;13.83;;;;;;;;;;5054715;28;20238;-89
2022/11/28 07:35:47;;;;;;;32.97;15.17;;;;;;;;;;5088140;28;20223;-89
2022/11/28 07:38:15;;;;;;;22.90;12.57;;;;;;;;;;5054665;28;20206;-87
2022/11/28 07:40:44;;;;;;;30.50;15.20;;;;;;;;;;5054674;28;20204;-89
2022/11/28 07:43:12;;;;;;;28.00;12.07;;;;;;;;;;5055799;28;20208;-89
2022/11/28 07:45:41;;;;;;;19.27;11.47;;;;;;;;;;5054559;28;20220;-88
2022/11/28 07:48:29;;;;;;;28.23;14.07;;;;;;;;;;5054368;28;20225;-89
2022/11/28 07:50:57;;;;;;;45.87;23.43;;;;;;;;;;5055239;28;20222;-89
2022/11/28 07:53:26;;;;;;;40.73;17.97;;;;;;;;;;5041836;28;20204;-89
2022/11/28 07:55:54;;;;;;;49.87;26.20;;;;;;;;;;5053504;28;20272;-89
2022/11/28 07:58:23;;;;;;;51.03;25.23;;;;;;;;;;5054128;28;20198;-89
2022/11/28 08:00:51;;;;;;;43.63;22.33;;;;;;;;;;5054002;28;20211;-89
2022/11/28 08:03:19;;;;;;;53.50;24.57;;;;;;;;;;5055236;28;20270;-89
2022/11/28 08:05:49;;;;;;;49.53;23.90;;;;;;;;;;5054362;28;20211;-89
2022/11/28 08:08:18;;;;;;;46.83;22.03;;;;;;;;;;5055244;28;20214;-89
2022/11/28 08:10:47;;;;;;;40.33;21.80;;;;;;;;;;5052676;28;20206;-89
2022/11/28 08:13:15;;;;;;;56.80;23.57;;;;;;;;;;5054074;28;20204;-89
2022/11/28 08:15:44;;;;;;;50.63;22.97;;;;;;;;;;5053663;28;20208;-89
2022/11/28 08:18:12;;;;;;;56.47;26.07;;;;;;;;;;5051899;28;20326;-89
2022/11/28 08:20:41;;;;;;;52.77;22.73;;;;;;;;;;5054215;28;20293;-89
2022/11/28 08:23:11;;;;;;;22.90;9.70;;;;;;;;;;5054114;28;20226;-89
2022/11/28 08:25:40;;;;;;;48.83;19.20;;;;;;;;;;5050014;28;20204;-89
2022/11/28 08:28:08;;;;;;;64.23;23.83;;;;;;;;;;5044756;28;20207;-88
2022/11/28 08:30:37;;;;;;;66.70;27.27;;;;;;;;;;5053643;28;20223;-89
2022/11/28 08:33:05;;;;;;;80.27;28.73;;;;;;;;;;5053764;28;20207;-89
2022/11/28 08:35:34;;;;;;;53.87;20.83;;;;;;;;;;5053328;28;20239;-89
2022/11/28 08:38:07;;;;;;;85.00;26.87;;;;;;;;;;5053064;28;20207;-90
2022/11/28 08:40:37;;;;;;;87.00;33.33;;;;;;;;;;5045500;28;20234;-90
2022/11/28 08:43:06;;;;;;;5.20;4.17;;;;;;;;;;5051902;28;20213;-88
2022/11/28 08:45:36;;;;;;;76.60;28.40;;;;;;;;;;5054386;28;20210;-91
2022/11/28 08:48:06;;;;;;;78.90;29.60;;;;;;;;;;5054115;28;20209;-91
2022/11/28 08:50:34;;;;;;;55.43;22.17;;;;;;;;;;5053952;28;20240;-83
2022/11/28 08:53:03;;;;;;;3.40;2.23;;;;;;;;;;5052872;28;20192;-82
2022/11/28 08:55:37;;;;;;;14.00;6.77;;;;;;;;;;5053799;28;20250;-83
2022/11/28 08:58:09;;;;;;;16.37;5.90;;;;;;;;;;5082700;28;20257;-84
2022/11/28 09:00:37;;;;;;;11.73;6.10;;;;;;;;;;5059760;28;20264;-83
2022/11/28 09:03:06;;;;;;;20.87;6.73;;;;;;;;;;5076014;28;20209;-83
2022/11/28 09:05:35;;;;;;;6.97;5.40;;;;;;;;;;5050344;28;20274;-83
2022/11/28 09:08:03;;;;;;;1.63;1.53;;;;;;;;;;5053058;28;20229;-82
2022/11/28 09:10:40;;;;;;;1.13;1.07;;;;;;;;;;5045047;28;20247;-83
2022/11/28 09:13:10;;;;;;;4.93;4.37;;;;;;;;;;5039629;28;20196;-83
2022/11/28 09:15:40;;;;;;;21.27;9.87;;;;;;;;;;5060285;28;20220;-82
2022/11/28 09:18:08;;;;;;;36.63;17.07;;;;;;;;;;5052427;28;20231;-82
2022/11/28 09:20:37;;;;;;;45.70;20.37;;;;;;;;;;5053773;28;20203;-82
2022/11/28 09:23:05;;;;;;;36.13;14.83;;;;;;;;;;5052336;28;20213;-83
2022/11/28 09:25:35;;;;;;;38.23;17.17;;;;;;;;;;5039557;28;20205;-84
2022/11/28 09:28:05;;;;;;;62.17;24.27;;;;;;;;;;5052752;28;20212;-83
2022/11/28 09:30:33;;;;;;;43.33;19.53;;;;;;;;;;5044217;28;20217;-84
2022/11/28 09:33:03;;;;;;;63.67;24.40;;;;;;;;;;5044405;28;20210;-83
2022/11/28 09:35:32;;;;;;;43.30;18.60;;;;;;;;;;5085269;28;20253;-84
2022/11/28 09:38:00;;;;;;;59.20;24.67;;;;;;;;;;5043140;28;20211;-83
2022/11/28 09:40:32;;;;;;;49.57;22.43;;;;;;;;;;5057727;28;20207;-83
2022/11/28 09:43:02;;;;;;;45.83;23.37;;;;;;;;;;5047577;28;20222;-82
2022/11/28 09:45:32;;;;;;;37.67;18.10;;;;;;;;;;5052060;28;20200;-83
2022/11/28 09:48:18;;;;;;;52.43;22.47;;;;;;;;;;5052467;28;20204;-82
2022/11/28 09:50:47;;;;;;;45.97;19.87;;;;;;;;;;5043593;28;20217;-82
2022/11/28 09:53:22;;;;;;;39.60;17.97;;;;;;;;;;5051721;28;20222;-82
2022/11/28 09:55:51;;;;;;;27.97;11.37;;;;;;;;;;5053009;28;20230;-82
2022/11/28 09:58:25;;;;;;;44.27;16.57;;;;;;;;;;5049576;28;20200;-83
2022/11/28 10:00:58;;;;;;;53.80;24.37;;;;;;;;;;5046351;28;20208;-82
2022/11/28 10:03:33;;;;;;;58.97;24.83;;;;;;;;;;5050571;28;20223;-83
2022/11/28 10:06:05;;;;;;;14.57;5.97;;;;;;;;;;5052661;28;20201;-82
2022/11/28 10:08:38;;;;;;;39.60;19.67;;;;;;;;;;5051633;28;20209;-82
2022/11/28 10:11:12;;;;;;;50.97;23.30;;;;;;;;;;5048662;28;20212;-83
2022/11/28 10:13:45;;;;;;;26.83;12.50;;;;;;;;;;5049748;28;20259;-83
2022/11/28 10:16:39;;;;;;;43.30;19.50;;;;;;;;;;5057634;28;20210;-83
2022/11/28 10:19:11;;;;;;;55.13;21.00;;;;;;;;;;5052023;28;20235;-83
2022/11/28 10:22:01;;;;;;;46.73;22.43;;;;;;;;;;5048426;28;20200;-83
2022/11/28 10:24:33;;;;;;;8.93;6.73;;;;;;;;;;5051249;28;20251;-83
2022/11/28 10:27:04;;;;;;;47.77;19.37;;;;;;;;;;5050931;28;20199;-83
2022/11/28 10:29:34;;;;;;;34.77;15.53;;;;;;;;;;5051007;28;20198;-83
2022/11/28 10:32:04;;;;;;;41.40;19.00;;;;;;;;;;5051313;28;20200;-83
2022/11/28 10:34:42;;;;;;;50.83;21.97;;;;;;;;;;5056364;28;20217;-83
2022/11/28 10:37:14;;;;;;;48.97;21.93;;;;;;;;;;5048744;28;20260;-84
2022/11/28 10:39:44;;;;;;;53.80;23.70;;;;;;;;;;5048221;28;20233;-83
2022/11/28 10:42:14;;;;;;;49.03;18.57;;;;;;;;;;5049173;28;20190;-84
2022/11/28 10:45:00;;;;;;;20.03;9.10;;;;;;;;;;5062350;28;20217;-82
2022/11/28 10:47:40;;;;;;;36.83;16.83;;;;;;;;;;5050652;28;20208;-82
2022/11/28 10:50:13;;;;;;;41.77;19.27;;;;;;;;;;5048779;28;20217;-82
2022/11/28 10:52:47;;;;;;;41.27;18.47;;;;;;;;;;5050317;28;20201;-83
2022/11/28 10:55:23;;;;;;;3.73;2.90;;;;;;;;;;5051248;28;20229;-83
2022/11/28 10:57:56;;;;;;;22.47;10.33;;;;;;;;;;5050099;28;20291;-83
2022/11/28 11:00:24;;;;;;;45.07;19.53;;;;;;;;;;5052181;28;20202;-83
2022/11/28 11:02:55;;;;;;;29.50;13.83;;;;;;;;;;5051535;28;20200;-83
2022/11/28 11:05:25;;;;;;;37.70;15.57;;;;;;;;;;5052093;28;20229;-82
2022/11/28 11:07:55;;;;;;;49.17;21.47;;;;;;;;;;5054447;28;20206;-83
2022/11/28 11:10:26;;;;;;;45.90;23.10;;;;;;;;;;5055740;28;20204;-83
2022/11/28 11:12:54;;;;;;;28.77;13.13;;;;;;;;;;5056119;28;20201;-83
2022/11/28 11:15:30;;;;;;;34.67;13.37;;;;;;;;;;5054703;28;20196;-83
2022/11/28 11:18:01;;;;;;;10.77;5.57;;;;;;;;;;5057649;28;20236;-83
2022/11/28 11:20:35;;;;;;;56.30;24.63;;;;;;;;;;5059222;28;20199;-83
2022/11/28 11:23:12;;;;;;;48.03;20.23;;;;;;;;;;5063061;28;20255;-83
2022/11/28 11:25:47;;;;;;;47.57;21.13;;;;;;;;;;5053544;28;20205;-80
2022/11/28 11:28:26;;;;;;;44.70;21.97;;;;;;;;;;5069172;28;20218;-83
2022/11/28 11:30:59;;;;;;;58.67;23.27;;;;;;;;;;5092668;28;20228;-83
2022/11/28 11:33:33;;;;;;;31.07;13.33;;;;;;;;;;5060243;28;20194;-83
2022/11/28 11:36:03;;;;;;;39.80;16.73;;;;;;;;;;5060015;28;20222;-84
2022/11/28 11:38:34;;;;;;;40.00;16.50;;;;;;;;;;5073305;28;20206;-83
2022/11/28 11:41:19;;;;;;;34.87;13.70;;;;;;;;;;5051759;28;20209;-83
2022/11/28 11:43:48;;;;;;;38.53;15.83;;;;;;;;;;5083220;28;20237;-82
2022/11/28 11:46:17;;;;;;;38.97;17.70;;;;;;;;;;5064393;28;20521;-82
2022/11/28 11:48:47;;;;;;;30.77;13.83;;;;;;;;;;5054685;28;20281;-83
2022/11/28 11:51:24;;;;;;;37.53;15.47;;;;;;;;;;5058754;28;20440;-83
2022/11/28 11:54:03;;;;;;;31.13;12.93;;;;;;;;;;5054912;28;20205;-83
2022/11/28 11:56:32;;;;;;;33.23;14.10;;;;;;;;;;5061504;28;20202;-82
2022/11/28 11:59:02;;;;;;;17.80;8.87;;;;;;;;;;5048396;28;20207;-83
2022/11/28 12:01:32;;;;;;;37.80;15.23;;;;;;;;;;5058165;28;20190;-83
2022/11/28 12:04:05;;;;;;;5.20;3.00;;;;;;;;;;5069161;28;20221;-82
2022/11/28 12:06:54;;;;;;;5.30;2.73;;;;;;;;;;5053752;28;20237;-82
2022/11/28 12:09:27;;;;;;;9.63;4.77;;;;;;;;;;5038558;28;20198;-82
2022/11/28 12:11:57;;;;;;;1.33;0.93;;;;;;;;;;5053402;28;20244;-82
2022/11/28 12:14:30;;;;;;;17.03;10.13;;;;;;;;;;5051494;28;20206;-82
2022/11/28 12:17:06;;;;;;;23.70;10.33;;;;;;;;;;5057065;28;20247;-82
2022/11/28 12:20:02;;;;;;;18.50;11.33;;;;;;;;;;5056076;28;20198;-82
2022/11/28 12:22:36;;;;;;;18.83;7.60;;;;;;;;;;5069275;28;20228;-83
2022/11/28 12:25:05;;;;;;;1.07;1.07;;;;;;;;;;5055049;28;20268;-84
2022/11/28 12:27:39;;;;;;;1.37;1.27;;;;;;;;;;5043769;28;20224;-83
2022/11/28 12:30:17;;;;;;;0.40;0.40;;;;;;;;;;5061931;28;20205;-84
2022/11/28 12:32:50;;;;;;;0.40;0.40;;;;;;;;;;5059147;28;20225;-83
2022/11/28 12:35:25;;;;;;;0.50;0.50;;;;;;;;;;5055978;28;20230;-83
2022/11/28 12:38:00;;;;;;;1.53;1.43;;;;;;;;;;5056948;28;20205;-82
2022/11/28 12:40:52;;;;;;;0.40;0.40;;;;;;;;;;5070724;28;20210;-83
2022/11/28 12:43:26;;;;;;;1.07;0.73;;;;;;;;;;5054403;28;20202;-83
2022/11/28 12:45:57;;;;;;;0.40;0.40;;;;;;;;;;5047469;28;20213;-83
2022/11/28 12:48:38;;;;;;;0.50;0.50;;;;;;;;;;5060076;28;20221;-83
2022/11/28 12:51:11;;;;;;;1.57;1.47;;;;;;;;;;5057221;28;20210;-83
2022/11/28 12:53:46;;;;;;;4.07;3.60;;;;;;;;;;5048357;28;20193;-83
2022/11/28 12:56:23;;;;;;;1.27;1.27;;;;;;;;;;5055495;28;20206;-82
2022/11/28 12:58:56;;;;;;;0.40;0.40;;;;;;;;;;5055055;28;20512;-83
2022/11/28 13:01:32;;;;;;;0.70;0.70;;;;;;;;;;5086009;28;20222;-83
2022/11/28 13:04:06;;;;;;;0.40;0.40;;;;;;;;;;5060647;28;20225;-83
2022/11/28 13:06:41;;;;;;;0.40;0.40;;;;;;;;;;5048239;28;20286;-83
2022/11/28 13:09:17;;;;;;;1.37;1.27;;;;;;;;;;5052144;28;20197;-83
2022/11/28 13:11:50;;;;;;;0.87;0.87;;;;;;;;;;5055501;28;20206;-83
2022/11/28 13:14:23;;;;;;;0.40;0.40;;;;;;;;;;5053194;28;20190;-82
2022/11/28 13:16:53;;;;;;;0.63;0.63;;;;;;;;;;5055998;28;20221;-83
2022/11/28 13:19:29;;;;;;;1.40;1.13;;;;;;;;;;5065306;28;20237;-82
2022/11/28 13:22:02;;;;;;;10.00;3.70;;;;;;;;;;5058600;28;20217;-83
2022/11/28 13:24:34;;;;;;;15.33;5.57;;;;;;;;;;5059150;28;20199;-82
2022/11/28 13:27:06;;;;;;;17.83;5.40;;;;;;;;;;5042285;28;20222;-83
2022/11/28 13:29:36;;;;;;;16.00;4.27;;;;;;;;;;5058693;28;20226;-84
2022/11/28 13:32:08;;;;;;;1.90;1.90;;;;;;;;;;5045196;28;20204;-83
2022/11/28 13:34:37;;;;;;;1.50;1.40;;;;;;;;;;5051871;28;20212;-84
2022/11/28 13:37:10;;;;;;;10.53;3.53;;;;;;;;;;5045371;28;20198;-83
2022/11/28 13:40:02;;;;;;;20.43;5.30;;;;;;;;;;5054354;28;20355;-84
2022/11/28 13:42:36;;;;;;;15.07;3.73;;;;;;;;;;5051427;28;20222;-83
2022/11/28 13:45:27;;;;;;;11.03;4.53;;;;;;;;;;5051768;28;20202;-83
2022/11/28 13:48:00;;;;;;;4.80;2.13;;;;;;;;;;5049370;28;20194;-82
2022/11/28 13:50:36;;;;;;;10.87;4.60;;;;;;;;;;5047285;28;20229;-83
2022/11/28 13:56:18;;;;;;;13.67;4.73;;;;;;;;;;5094700;27;20549;-83
2022/11/28 13:58:50;;;;;;;21.60;4.13;;;;;;;;;;5069605;28;20280;-82
2022/11/28 14:01:20;;;;;;;2.30;2.10;;;;;;;;;;5068365;28;20201;-83
2022/11/28 14:03:49;;;;;;;0.67;0.67;;;;;;;;;;5087711;28;20228;-84
2022/11/28 14:06:20;;;;;;;2.73;2.40;;;;;;;;;;5083269;28;20211;-83
2022/11/28 14:08:49;;;;;;;6.90;3.47;;;;;;;;;;5069635;28;20205;-83
2022/11/28 14:11:25;;;;;;;0.40;0.40;;;;;;;;;;5075492;28;20209;-84
2022/11/28 14:14:16;;;;;;;1.23;1.13;;;;;;;;;;5066299;28;20212;-84
2022/11/28 14:16:52;;;;;;;0.40;0.40;;;;;;;;;;5083869;28;20208;-84
2022/11/28 14:19:26;;;;;;;6.50;3.13;;;;;;;;;;5062353;28;20193;-84
2022/11/28 14:22:03;;;;;;;7.93;4.10;;;;;;;;;;5081618;28;20261;-85
2022/11/28 14:24:43;;;;;;;13.03;5.07;;;;;;;;;;5079254;28;20196;-83
2022/11/28 14:27:18;;;;;;;5.43;1.60;;;;;;;;;;5066962;28;20283;-83
2022/11/28 14:29:49;;;;;;;13.67;5.13;;;;;;;;;;5063305;28;20214;-82
2022/11/28 14:32:25;;;;;;;29.53;3.87;;;;;;;;;;5061391;28;20201;-81
2022/11/28 14:34:58;;;;;;;14.23;5.60;;;;;;;;;;5065568;28;20217;-81
2022/11/28 14:37:37;;;;;;;7.93;4.43;;;;;;;;;;5066243;28;20200;-82
2022/11/28 14:40:27;;;;;;;17.53;4.90;;;;;;;;;;5064121;28;20254;-82
2022/11/28 14:43:11;;;;;;;9.23;2.67;;;;;;;;;;5080851;28;20221;-82
2022/11/28 14:45:42;;;;;;;0.40;0.40;;;;;;;;;;5075849;28;20224;-82
2022/11/28 14:48:18;;;;;;;0.40;0.40;;;;;;;;;;5061859;28;20220;-82
2022/11/28 14:50:50;;;;;;;0.43;0.43;;;;;;;;;;5062643;28;20193;-82
2022/11/28 14:53:38;;;;;;;14.77;7.00;;;;;;;;;;5088127;28;20291;-82